sensor_id;sensor_type;location;lat;lon;timestamp;noise_LAeq;noise_LA_min;noise_LA_max;noise_LA01;noise_LA95
66747;Laerm;53658;50.742;10.864;2022-08-21T00:02:27;39.66;35.66;42.41;;
66747;Laerm;53658;50.742;10.864;2022-08-21T00:04:54;39.86;35.04;60.17;;
66747;Laerm;53658;50.742;10.864;2022-08-21T00:07:20;39.86;33.90;43.63;;
66747;Laerm;53658;50.742;10.864;2022-08-21T00:09:47;39.80;34.69;47.79;;
66747;Laerm;53658;50.742;10.864;2022-08-21T00:12:13;39.84;35.36;57.85;;
66747;Laerm;53658;50.742;10.864;2022-08-21T00:14:39;39.70;35.36;52.53;;
66747;Laerm;53658;50.742;10.864;2022-08-21T00:17:06;39.54;35.04;42.09;;
66747;Laerm;53658;50.742;10.864;2022-08-21T00:19:33;40.98;36.10;64.09;;
66747;Laerm;53658;50.742;10.864;2022-08-21T00:21:59;40.05;36.20;42.41;;
66747;Laerm;53658;50.742;10.864;2022-08-21T00:24:25;39.72;35.66;42.22;;
66747;Laerm;53658;50.742;10.864;2022-08-21T00:26:52;39.61;35.36;42.88;;
66747;Laerm;53658;50.742;10.864;2022-08-21T00:29:19;51.55;35.66;87.45;;
66747;Laerm;53658;50.742;10.864;2022-08-21T00:31:45;39.72;35.94;41.96;;
66747;Laerm;53658;50.742;10.864;2022-08-21T00:34:12;39.71;35.94;42.03;;
66747;Laerm;53658;50.742;10.864;2022-08-21T00:36:39;46.88;35.66;82.17;;
66747;Laerm;53658;50.742;10.864;2022-08-21T00:39:07;39.78;35.36;42.03;;
66747;Laerm;53658;50.742;10.864;2022-08-21T00:41:35;39.81;35.94;45.07;;
66747;Laerm;53658;50.742;10.864;2022-08-21T00:44:03;39.79;35.36;42.29;;
66747;Laerm;53658;50.742;10.864;2022-08-21T00:46:30;39.72;35.66;51.64;;
66747;Laerm;53658;50.742;10.864;2022-08-21T00:48:56;39.78;36.20;42.53;;
66747;Laerm;53658;50.742;10.864;2022-08-21T00:51:29;39.72;36.20;41.96;;
66747;Laerm;53658;50.742;10.864;2022-08-21T00:54:00;39.65;35.04;42.09;;
66747;Laerm;53658;50.742;10.864;2022-08-21T00:56:27;39.66;34.31;41.82;;
66747;Laerm;53658;50.742;10.864;2022-08-21T00:58:56;39.56;35.66;42.29;;
66747;Laerm;53658;50.742;10.864;2022-08-21T01:01:23;39.54;35.66;41.75;;
66747;Laerm;53658;50.742;10.864;2022-08-21T01:03:49;39.50;33.90;41.82;;
66747;Laerm;53658;50.742;10.864;2022-08-21T01:06:16;39.56;36.20;44.23;;
66747;Laerm;53658;50.742;10.864;2022-08-21T01:08:42;39.60;35.04;42.22;;
66747;Laerm;53658;50.742;10.864;2022-08-21T01:11:09;39.53;35.36;42.22;;
66747;Laerm;53658;50.742;10.864;2022-08-21T01:13:37;39.49;33.90;42.22;;
66747;Laerm;53658;50.742;10.864;2022-08-21T01:16:08;39.54;35.66;41.96;;
66747;Laerm;53658;50.742;10.864;2022-08-21T01:18:35;39.56;35.04;41.96;;
66747;Laerm;53658;50.742;10.864;2022-08-21T01:21:13;39.68;34.31;42.88;;
66747;Laerm;53658;50.742;10.864;2022-08-21T01:23:43;39.64;35.66;42.53;;
66747;Laerm;53658;50.742;10.864;2022-08-21T01:26:11;39.62;35.36;42.22;;
66747;Laerm;53658;50.742;10.864;2022-08-21T01:28:43;39.70;35.66;54.74;;
66747;Laerm;53658;50.742;10.864;2022-08-21T01:31:13;39.58;35.94;44.15;;
66747;Laerm;53658;50.742;10.864;2022-08-21T01:33:41;39.47;34.69;42.47;;
66747;Laerm;53658;50.742;10.864;2022-08-21T01:36:07;39.43;35.36;42.41;;
66747;Laerm;53658;50.742;10.864;2022-08-21T01:38:33;39.74;34.31;63.48;;
66747;Laerm;53658;50.742;10.864;2022-08-21T01:40:59;39.50;35.04;42.16;;
66747;Laerm;53658;50.742;10.864;2022-08-21T01:43:26;39.49;35.04;41.89;;
66747;Laerm;53658;50.742;10.864;2022-08-21T01:45:52;39.55;35.31;43.19;;
66747;Laerm;53658;50.742;10.864;2022-08-21T01:48:18;39.73;35.36;46.59;;
66747;Laerm;53658;50.742;10.864;2022-08-21T01:50:44;39.46;35.04;44.15;;
66747;Laerm;53658;50.742;10.864;2022-08-21T01:53:10;39.40;35.36;42.09;;
66747;Laerm;53658;50.742;10.864;2022-08-21T01:55:36;39.34;34.31;42.76;;
66747;Laerm;53658;50.742;10.864;2022-08-21T01:58:02;40.48;34.69;70.35;;
66747;Laerm;53658;50.742;10.864;2022-08-21T02:00:28;39.22;34.34;41.61;;
66747;Laerm;53658;50.742;10.864;2022-08-21T02:02:55;39.29;35.04;41.96;;
66747;Laerm;53658;50.742;10.864;2022-08-21T02:05:21;52.46;35.04;88.45;;
66747;Laerm;53658;50.742;10.864;2022-08-21T02:07:50;39.25;33.90;44.97;;
66747;Laerm;53658;50.742;10.864;2022-08-21T02:10:23;39.29;35.04;41.68;;
66747;Laerm;53658;50.742;10.864;2022-08-21T02:12:50;39.34;34.69;43.68;;
66747;Laerm;53658;50.742;10.864;2022-08-21T02:15:16;39.38;35.36;42.22;;
66747;Laerm;53658;50.742;10.864;2022-08-21T02:17:51;39.36;35.36;42.16;;
66747;Laerm;53658;50.742;10.864;2022-08-21T02:20:40;39.30;34.69;41.82;;
66747;Laerm;53658;50.742;10.864;2022-08-21T02:23:08;39.42;35.04;42.16;;
66747;Laerm;53658;50.742;10.864;2022-08-21T02:25:35;39.28;35.04;41.82;;
66747;Laerm;53658;50.742;10.864;2022-08-21T02:28:08;39.43;35.94;42.16;;
66747;Laerm;53658;50.742;10.864;2022-08-21T02:30:39;46.17;33.97;80.59;;
66747;Laerm;53658;50.742;10.864;2022-08-21T02:33:07;40.43;36.20;43.29;;
66747;Laerm;53658;50.742;10.864;2022-08-21T02:35:33;40.12;36.20;42.41;;
66747;Laerm;53658;50.742;10.864;2022-08-21T02:38:03;40.03;35.36;42.59;;
66747;Laerm;53658;50.742;10.864;2022-08-21T02:40:32;39.82;35.66;42.59;;
66747;Laerm;53658;50.742;10.864;2022-08-21T02:43:00;39.75;35.94;42.29;;
66747;Laerm;53658;50.742;10.864;2022-08-21T02:45:29;39.77;35.04;49.36;;
66747;Laerm;53658;50.742;10.864;2022-08-21T02:48:01;39.48;34.31;41.82;;
66747;Laerm;53658;50.742;10.864;2022-08-21T02:50:34;39.53;34.69;45.45;;
66747;Laerm;53658;50.742;10.864;2022-08-21T02:53:01;39.65;35.66;58.03;;
66747;Laerm;53658;50.742;10.864;2022-08-21T02:55:30;39.52;35.36;42.16;;
66747;Laerm;53658;50.742;10.864;2022-08-21T02:57:58;39.56;35.66;41.96;;
66747;Laerm;53658;50.742;10.864;2022-08-21T03:00:27;39.55;35.66;43.90;;
66747;Laerm;53658;50.742;10.864;2022-08-21T03:02:54;39.39;34.69;42.59;;
66747;Laerm;53658;50.742;10.864;2022-08-21T03:05:23;39.75;35.94;60.53;;
66747;Laerm;53658;50.742;10.864;2022-08-21T03:07:49;39.62;35.04;43.68;;
66747;Laerm;53658;50.742;10.864;2022-08-21T03:10:19;39.50;35.66;41.89;;
66747;Laerm;53658;50.742;10.864;2022-08-21T03:12:46;39.82;36.20;41.96;;
66747;Laerm;53658;50.742;10.864;2022-08-21T03:15:15;39.63;35.36;42.35;;
66747;Laerm;53658;50.742;10.864;2022-08-21T03:17:43;39.60;34.69;56.98;;
66747;Laerm;53658;50.742;10.864;2022-08-21T03:20:10;52.39;35.66;87.83;;
66747;Laerm;53658;50.742;10.864;2022-08-21T03:22:38;42.42;39.11;51.30;;
66747;Laerm;53658;50.742;10.864;2022-08-21T03:25:04;48.17;37.88;83.10;;
66747;Laerm;53658;50.742;10.864;2022-08-21T03:27:30;41.38;37.52;46.32;;
66747;Laerm;53658;50.742;10.864;2022-08-21T03:29:57;41.16;36.69;49.00;;
66747;Laerm;53658;50.742;10.864;2022-08-21T03:32:24;40.90;37.32;46.05;;
66747;Laerm;53658;50.742;10.864;2022-08-21T03:34:50;40.63;36.91;43.24;;
66747;Laerm;53658;50.742;10.864;2022-08-21T03:37:16;41.20;36.20;49.80;;
66747;Laerm;53658;50.742;10.864;2022-08-21T03:39:44;40.63;35.36;45.54;;
66747;Laerm;53658;50.742;10.864;2022-08-21T03:42:11;40.51;36.45;45.07;;
66747;Laerm;53658;50.742;10.864;2022-08-21T03:44:37;40.36;35.94;42.59;;
66747;Laerm;53658;50.742;10.864;2022-08-21T03:47:05;40.40;36.69;43.09;;
66747;Laerm;53658;50.742;10.864;2022-08-21T03:49:32;40.31;36.69;42.71;;
66747;Laerm;53658;50.742;10.864;2022-08-21T03:52:00;40.24;35.94;42.65;;
66747;Laerm;53658;50.742;10.864;2022-08-21T03:54:26;46.40;35.94;81.43;;
66747;Laerm;53658;50.742;10.864;2022-08-21T03:56:52;39.74;35.36;42.35;;
66747;Laerm;53658;50.742;10.864;2022-08-21T03:59:18;47.98;35.59;83.42;;
66747;Laerm;53658;50.742;10.864;2022-08-21T04:01:56;40.60;36.69;60.78;;
66747;Laerm;53658;50.742;10.864;2022-08-21T04:04:23;40.46;36.69;43.09;;
66747;Laerm;53658;50.742;10.864;2022-08-21T04:06:49;40.38;36.45;42.82;;
66747;Laerm;53658;50.742;10.864;2022-08-21T04:09:16;40.24;36.20;42.35;;
66747;Laerm;53658;50.742;10.864;2022-08-21T04:11:42;40.11;35.04;42.47;;
66747;Laerm;53658;50.742;10.864;2022-08-21T04:14:08;40.14;36.69;42.35;;
66747;Laerm;53658;50.742;10.864;2022-08-21T04:16:35;40.10;35.94;42.59;;
66747;Laerm;53658;50.742;10.864;2022-08-21T04:19:01;40.05;35.94;42.22;;
66747;Laerm;53658;50.742;10.864;2022-08-21T04:21:27;40.17;36.20;42.59;;
66747;Laerm;53658;50.742;10.864;2022-08-21T04:23:54;40.20;36.45;42.71;;
66747;Laerm;53658;50.742;10.864;2022-08-21T04:26:21;40.15;36.45;42.41;;
66747;Laerm;53658;50.742;10.864;2022-08-21T04:28:47;40.12;36.20;42.35;;
66747;Laerm;53658;50.742;10.864;2022-08-21T04:31:13;40.11;35.94;43.72;;
66747;Laerm;53658;50.742;10.864;2022-08-21T04:33:40;40.55;36.34;42.93;;
66747;Laerm;53658;50.742;10.864;2022-08-21T04:36:06;39.98;35.36;42.41;;
66747;Laerm;53658;50.742;10.864;2022-08-21T04:38:33;39.98;35.04;43.63;;
66747;Laerm;53658;50.742;10.864;2022-08-21T04:40:59;40.03;35.66;42.88;;
66747;Laerm;53658;50.742;10.864;2022-08-21T04:43:25;39.99;35.04;42.36;;
66747;Laerm;53658;50.742;10.864;2022-08-21T04:45:52;40.52;36.69;43.46;;
66747;Laerm;53658;50.742;10.864;2022-08-21T04:48:22;40.72;36.91;43.58;;
66747;Laerm;53658;50.742;10.864;2022-08-21T04:50:56;40.65;36.91;43.72;;
66747;Laerm;53658;50.742;10.864;2022-08-21T04:53:31;40.67;35.66;43.81;;
66747;Laerm;53658;50.742;10.864;2022-08-21T04:56:02;39.99;35.66;43.19;;
66747;Laerm;53658;50.742;10.864;2022-08-21T04:58:30;40.02;35.36;42.71;;
66747;Laerm;53658;50.742;10.864;2022-08-21T05:00:58;40.04;35.36;44.27;;
66747;Laerm;53658;50.742;10.864;2022-08-21T05:03:25;40.03;36.20;43.34;;
66747;Laerm;53658;50.742;10.864;2022-08-21T05:05:52;40.12;35.66;43.24;;
66747;Laerm;53658;50.742;10.864;2022-08-21T05:08:21;40.07;34.31;43.44;;
66747;Laerm;53658;50.742;10.864;2022-08-21T05:10:49;39.88;35.66;42.74;;
66747;Laerm;53658;50.742;10.864;2022-08-21T05:13:16;48.20;35.66;83.71;;
66747;Laerm;53658;50.742;10.864;2022-08-21T05:15:42;39.96;35.66;45.01;;
66747;Laerm;53658;50.742;10.864;2022-08-21T05:18:08;39.81;35.66;42.71;;
66747;Laerm;53658;50.742;10.864;2022-08-21T05:20:35;40.06;35.94;42.59;;
66747;Laerm;53658;50.742;10.864;2022-08-21T05:23:07;40.38;35.66;64.12;;
66747;Laerm;53658;50.742;10.864;2022-08-21T05:25:34;40.15;35.66;42.59;;
66747;Laerm;53658;50.742;10.864;2022-08-21T05:28:00;40.24;36.45;42.93;;
66747;Laerm;53658;50.742;10.864;2022-08-21T05:30:26;40.02;35.36;42.98;;
66747;Laerm;53658;50.742;10.864;2022-08-21T05:32:57;39.68;34.69;57.01;;
66747;Laerm;53658;50.742;10.864;2022-08-21T05:35:25;39.73;35.04;43.19;;
66747;Laerm;53658;50.742;10.864;2022-08-21T05:37:51;39.99;35.04;42.93;;
66747;Laerm;53658;50.742;10.864;2022-08-21T05:40:17;39.82;35.94;42.65;;
66747;Laerm;53658;50.742;10.864;2022-08-21T05:42:44;39.65;35.36;42.65;;
66747;Laerm;53658;50.742;10.864;2022-08-21T05:45:10;39.88;35.04;42.22;;
66747;Laerm;53658;50.742;10.864;2022-08-21T05:47:36;40.40;35.04;44.23;;
66747;Laerm;53658;50.742;10.864;2022-08-21T05:50:03;40.10;35.94;43.19;;
66747;Laerm;53658;50.742;10.864;2022-08-21T05:52:29;39.93;35.66;46.66;;
66747;Laerm;53658;50.742;10.864;2022-08-21T05:54:56;39.75;35.04;42.30;;
66747;Laerm;53658;50.742;10.864;2022-08-21T05:57:22;39.97;35.66;42.65;;
66747;Laerm;53658;50.742;10.864;2022-08-21T05:59:49;40.08;35.94;42.53;;
66747;Laerm;53658;50.742;10.864;2022-08-21T06:02:20;40.06;35.94;42.47;;
66747;Laerm;53658;50.742;10.864;2022-08-21T06:04:47;40.41;35.94;42.74;;
66747;Laerm;53658;50.742;10.864;2022-08-21T06:07:14;39.97;34.69;47.46;;
66747;Laerm;53658;50.742;10.864;2022-08-21T06:09:40;40.13;35.94;46.28;;
66747;Laerm;53658;50.742;10.864;2022-08-21T06:12:10;39.98;35.66;60.80;;
66747;Laerm;53658;50.742;10.864;2022-08-21T06:14:39;40.28;35.66;48.85;;
66747;Laerm;53658;50.742;10.864;2022-08-21T06:17:09;42.33;37.70;49.66;;
66747;Laerm;53658;50.742;10.864;2022-08-21T06:19:37;41.49;35.94;50.33;;
66747;Laerm;53658;50.742;10.864;2022-08-21T06:22:04;41.93;36.91;50.54;;
66747;Laerm;53658;50.742;10.864;2022-08-21T06:24:30;42.30;37.70;49.92;;
66747;Laerm;53658;50.742;10.864;2022-08-21T06:26:56;40.31;35.94;50.24;;
66747;Laerm;53658;50.742;10.864;2022-08-21T06:29:25;40.10;35.66;42.59;;
66747;Laerm;53658;50.742;10.864;2022-08-21T06:31:51;46.36;35.66;81.31;;
66747;Laerm;53658;50.742;10.864;2022-08-21T06:34:18;40.28;35.66;46.73;;
66747;Laerm;53658;50.742;10.864;2022-08-21T06:36:44;40.17;35.04;42.41;;
66747;Laerm;53658;50.742;10.864;2022-08-21T06:39:10;40.37;36.69;42.71;;
66747;Laerm;53658;50.742;10.864;2022-08-21T06:41:36;40.58;35.94;59.92;;
66747;Laerm;53658;50.742;10.864;2022-08-21T06:44:02;40.67;36.69;47.74;;
66747;Laerm;53658;50.742;10.864;2022-08-21T06:46:30;40.83;36.45;64.89;;
66747;Laerm;53658;50.742;10.864;2022-08-21T06:48:56;46.40;35.94;80.58;;
66747;Laerm;53658;50.742;10.864;2022-08-21T06:51:24;40.87;36.91;52.67;;
66747;Laerm;53658;50.742;10.864;2022-08-21T06:53:54;42.02;36.45;54.67;;
66747;Laerm;53658;50.742;10.864;2022-08-21T06:56:20;42.29;37.32;55.31;;
66747;Laerm;53658;50.742;10.864;2022-08-21T06:58:46;47.47;37.70;82.40;;
66747;Laerm;53658;50.742;10.864;2022-08-21T07:01:12;44.51;37.12;77.46;;
66747;Laerm;53658;50.742;10.864;2022-08-21T07:03:40;41.05;35.66;51.58;;
66747;Laerm;53658;50.742;10.864;2022-08-21T07:06:09;41.05;37.52;45.27;;
66747;Laerm;53658;50.742;10.864;2022-08-21T07:08:37;41.00;37.52;45.27;;
66747;Laerm;53658;50.742;10.864;2022-08-21T07:11:09;40.81;36.91;45.94;;
66747;Laerm;53658;50.742;10.864;2022-08-21T07:13:36;41.27;37.32;62.58;;
66747;Laerm;53658;50.742;10.864;2022-08-21T07:16:02;41.20;37.53;44.19;;
66747;Laerm;53658;50.742;10.864;2022-08-21T07:18:29;46.51;38.05;80.82;;
66747;Laerm;53658;50.742;10.864;2022-08-21T07:20:55;41.79;38.21;49.92;;
66747;Laerm;53658;50.742;10.864;2022-08-21T07:23:28;41.94;38.37;45.17;;
66747;Laerm;53658;50.742;10.864;2022-08-21T07:25:55;42.11;39.46;46.80;;
66747;Laerm;53658;50.742;10.864;2022-08-21T07:28:21;41.94;38.21;48.55;;
66747;Laerm;53658;50.742;10.864;2022-08-21T07:30:52;42.16;38.81;49.38;;
66747;Laerm;53658;50.742;10.864;2022-08-21T07:33:19;43.59;39.58;51.23;;
66747;Laerm;53658;50.742;10.864;2022-08-21T07:35:45;43.00;38.37;49.98;;
66747;Laerm;53658;50.742;10.864;2022-08-21T07:38:11;42.85;39.21;56.92;;
66747;Laerm;53658;50.742;10.864;2022-08-21T07:40:37;43.95;40.18;66.81;;
66747;Laerm;53658;50.742;10.864;2022-08-21T07:43:02;43.60;39.92;53.93;;
66747;Laerm;53658;50.742;10.864;2022-08-21T07:45:28;43.29;39.34;49.89;;
66747;Laerm;53658;50.742;10.864;2022-08-21T07:47:55;44.15;39.08;53.34;;
66747;Laerm;53658;50.742;10.864;2022-08-21T07:50:21;43.78;39.08;51.29;;
66747;Laerm;53658;50.742;10.864;2022-08-21T07:52:48;44.02;40.13;52.95;;
66747;Laerm;53658;50.742;10.864;2022-08-21T07:55:18;44.53;40.62;52.03;;
66747;Laerm;53658;50.742;10.864;2022-08-21T07:57:45;44.16;40.45;55.23;;
66747;Laerm;53658;50.742;10.864;2022-08-21T08:00:16;43.33;39.34;63.58;;
66747;Laerm;53658;50.742;10.864;2022-08-21T08:02:45;43.60;39.81;48.26;;
66747;Laerm;53658;50.742;10.864;2022-08-21T08:05:17;42.37;38.47;45.27;;
66747;Laerm;53658;50.742;10.864;2022-08-21T08:07:44;45.81;39.70;77.67;;
66747;Laerm;53658;50.742;10.864;2022-08-21T08:10:10;44.02;40.80;52.04;;
66747;Laerm;53658;50.742;10.864;2022-08-21T08:12:39;43.29;39.34;50.28;;
66747;Laerm;53658;50.742;10.864;2022-08-21T08:15:08;43.14;39.08;71.05;;
66747;Laerm;53658;50.742;10.864;2022-08-21T08:17:35;43.23;40.23;48.32;;
66747;Laerm;53658;50.742;10.864;2022-08-21T08:20:00;43.08;40.33;54.85;;
66747;Laerm;53658;50.742;10.864;2022-08-21T08:22:27;42.79;39.08;46.97;;
66747;Laerm;53658;50.742;10.864;2022-08-21T08:24:53;43.03;39.58;55.17;;
66747;Laerm;53658;50.742;10.864;2022-08-21T08:27:20;43.14;39.99;44.73;;
66747;Laerm;53658;50.742;10.864;2022-08-21T08:29:47;42.94;40.43;47.77;;
66747;Laerm;53658;50.742;10.864;2022-08-21T08:32:13;43.31;41.22;51.26;;
66747;Laerm;53658;50.742;10.864;2022-08-21T08:34:39;43.33;40.13;60.01;;
66747;Laerm;53658;50.742;10.864;2022-08-21T08:37:08;43.11;40.89;45.89;;
66747;Laerm;53658;50.742;10.864;2022-08-21T08:39:34;43.08;40.53;44.83;;
66747;Laerm;53658;50.742;10.864;2022-08-21T08:42:12;43.17;40.71;44.87;;
66747;Laerm;53658;50.742;10.864;2022-08-21T08:44:43;43.07;40.80;44.58;;
66747;Laerm;53658;50.742;10.864;2022-08-21T08:47:16;42.94;40.03;44.69;;
66747;Laerm;53658;50.742;10.864;2022-08-21T08:49:55;42.85;40.53;44.83;;
66747;Laerm;53658;50.742;10.864;2022-08-21T08:52:30;42.70;39.81;44.31;;
66747;Laerm;53658;50.742;10.864;2022-08-21T08:57:34;42.20;38.95;43.90;;
66747;Laerm;53658;50.742;10.864;2022-08-21T09:00:08;42.06;38.67;44.03;;
66747;Laerm;53658;50.742;10.864;2022-08-21T09:02:39;42.30;39.08;44.31;;
66747;Laerm;53658;50.742;10.864;2022-08-21T09:05:08;42.39;39.34;46.57;;
66747;Laerm;53658;50.742;10.864;2022-08-21T09:10:18;42.28;38.67;44.27;;
66747;Laerm;53658;50.742;10.864;2022-08-21T09:13:11;42.83;39.46;57.36;;
66747;Laerm;53658;50.742;10.864;2022-08-21T09:19:33;42.31;38.81;49.89;;
66747;Laerm;53658;50.742;10.864;2022-08-21T09:21:35;41.73;38.05;43.63;;
66747;Laerm;53658;50.742;10.864;2022-08-21T09:27:14;42.85;39.92;45.27;;
66747;Laerm;53658;50.742;10.864;2022-08-21T09:29:45;42.60;39.46;44.80;;
66747;Laerm;53658;50.742;10.864;2022-08-21T09:32:39;41.93;38.95;44.65;;
66747;Laerm;53658;50.742;10.864;2022-08-21T09:35:10;41.63;38.05;43.49;;
66747;Laerm;53658;50.742;10.864;2022-08-21T09:37:57;41.64;37.88;43.72;;
66747;Laerm;53658;50.742;10.864;2022-08-21T09:40:43;41.56;37.12;43.63;;
66747;Laerm;53658;50.742;10.864;2022-08-21T09:45:41;41.19;37.70;44.87;;
66747;Laerm;53658;50.742;10.864;2022-08-21T09:50:42;41.82;38.67;45.89;;
66747;Laerm;53658;50.742;10.864;2022-08-21T09:53:29;42.12;38.67;44.31;;
66747;Laerm;53658;50.742;10.864;2022-08-21T09:56:03;42.31;38.81;46.50;;
66747;Laerm;53658;50.742;10.864;2022-08-21T09:58:51;41.70;36.91;51.03;;
66747;Laerm;53658;50.742;10.864;2022-08-21T10:01:24;41.02;36.45;62.48;;
66747;Laerm;53658;50.742;10.864;2022-08-21T10:04:11;44.56;37.12;77.97;;
66747;Laerm;53658;50.742;10.864;2022-08-21T10:06:37;46.63;37.53;81.73;;
66747;Laerm;53658;50.742;10.864;2022-08-21T10:09:13;40.89;37.88;65.95;;
66747;Laerm;53658;50.742;10.864;2022-08-21T10:11:47;40.31;37.32;42.53;;
66747;Laerm;53658;50.742;10.864;2022-08-21T10:17:07;40.50;38.05;48.80;;
66747;Laerm;53658;50.742;10.864;2022-08-21T10:22:44;40.54;38.37;44.15;;
66747;Laerm;53658;50.742;10.864;2022-08-21T10:31:03;40.69;38.52;47.54;;
66747;Laerm;53658;50.742;10.864;2022-08-21T10:36:46;38.99;35.94;41.38;;
66747;Laerm;53658;50.742;10.864;2022-08-21T10:39:32;38.35;34.31;41.22;;
66747;Laerm;53658;50.742;10.864;2022-08-21T10:42:17;38.02;33.44;40.62;;
66747;Laerm;53658;50.742;10.864;2022-08-21T10:47:42;38.27;33.90;40.89;;
66747;Laerm;53658;50.742;10.864;2022-08-21T10:53:00;38.38;34.69;40.80;;
66747;Laerm;53658;50.742;10.864;2022-08-21T10:55:36;38.65;34.31;41.14;;
66747;Laerm;53658;50.742;10.864;2022-08-21T10:58:37;38.38;33.44;40.98;;
66747;Laerm;53658;50.742;10.864;2022-08-21T11:01:09;38.17;34.31;41.30;;
66747;Laerm;53658;50.742;10.864;2022-08-21T11:04:18;37.93;32.93;40.71;;
66747;Laerm;53658;50.742;10.864;2022-08-21T11:06:51;38.00;33.44;42.16;;
66747;Laerm;53658;50.742;10.864;2022-08-21T11:09:24;37.93;33.90;40.71;;
66747;Laerm;53658;50.742;10.864;2022-08-21T11:12:06;38.56;34.31;41.14;;
66747;Laerm;53658;50.742;10.864;2022-08-21T11:17:13;38.12;33.44;40.89;;
66747;Laerm;53658;50.742;10.864;2022-08-21T11:20:13;38.27;34.69;41.30;;
66747;Laerm;53658;50.742;10.864;2022-08-21T11:22:58;38.28;33.44;41.22;;
66747;Laerm;53658;50.742;10.864;2022-08-21T11:28:59;38.23;34.31;40.89;;
66747;Laerm;53658;50.742;10.864;2022-08-21T11:31:50;38.05;32.35;40.80;;
66747;Laerm;53658;50.742;10.864;2022-08-21T11:34:54;37.67;32.93;40.62;;
66747;Laerm;53658;50.742;10.864;2022-08-21T11:40:16;37.76;32.93;40.33;;
66747;Laerm;53658;50.742;10.864;2022-08-21T11:45:47;37.86;32.93;40.80;;
66747;Laerm;53658;50.742;10.864;2022-08-21T11:48:43;37.93;33.90;40.80;;
66747;Laerm;53658;50.742;10.864;2022-08-21T11:51:27;37.98;33.44;40.98;;
66747;Laerm;53658;50.742;10.864;2022-08-21T11:54:14;38.07;33.44;40.45;;
66747;Laerm;53658;50.742;10.864;2022-08-21T11:56:54;38.14;34.69;40.80;;
66747;Laerm;53658;50.742;10.864;2022-08-21T12:02:29;38.29;33.90;41.61;;
66747;Laerm;53658;50.742;10.864;2022-08-21T12:05:08;38.13;32.35;41.26;;
66747;Laerm;53658;50.742;10.864;2022-08-21T12:07:43;38.07;33.90;40.71;;
66747;Laerm;53658;50.742;10.864;2022-08-21T12:10:14;38.14;33.90;40.62;;
66747;Laerm;53658;50.742;10.864;2022-08-21T12:12:43;38.45;33.90;41.22;;
66747;Laerm;53658;50.742;10.864;2022-08-21T12:25:42;37.90;32.93;41.89;;
66747;Laerm;53658;50.742;10.864;2022-08-21T12:28:16;37.67;32.35;40.33;;
66747;Laerm;53658;50.742;10.864;2022-08-21T12:30:49;37.71;32.93;40.43;;
66747;Laerm;53658;50.742;10.864;2022-08-21T12:35:52;37.67;32.93;40.62;;
66747;Laerm;53658;50.742;10.864;2022-08-21T12:38:28;37.73;32.35;40.89;;
66747;Laerm;53658;50.742;10.864;2022-08-21T12:41:19;37.79;33.44;40.62;;
66747;Laerm;53658;50.742;10.864;2022-08-21T12:43:53;37.80;32.35;40.43;;
66747;Laerm;53658;50.742;10.864;2022-08-21T12:47:15;37.90;33.44;40.54;;
66747;Laerm;53658;50.742;10.864;2022-08-21T12:49:32;37.93;33.44;40.80;;
66747;Laerm;53658;50.742;10.864;2022-08-21T12:52:29;37.85;31.68;40.71;;
66747;Laerm;53658;50.742;10.864;2022-08-21T12:54:56;37.76;32.35;40.80;;
66747;Laerm;53658;50.742;10.864;2022-08-21T12:57:26;37.67;32.35;40.71;;
66747;Laerm;53658;50.742;10.864;2022-08-21T12:59:59;37.73;33.44;40.62;;
66747;Laerm;53658;50.742;10.864;2022-08-21T13:02:37;37.79;33.44;40.53;;
66747;Laerm;53658;50.742;10.864;2022-08-21T13:05:11;37.73;32.93;40.71;;
66747;Laerm;53658;50.742;10.864;2022-08-21T13:07:44;37.72;32.93;40.71;;
66747;Laerm;53658;50.742;10.864;2022-08-21T13:10:28;37.74;33.44;40.71;;
66747;Laerm;53658;50.742;10.864;2022-08-21T13:13:04;37.83;32.93;40.71;;
66747;Laerm;53658;50.742;10.864;2022-08-21T13:15:35;37.84;31.68;40.89;;
66747;Laerm;53658;50.742;10.864;2022-08-21T13:18:05;37.93;33.44;41.68;;
66747;Laerm;53658;50.742;10.864;2022-08-21T13:20:40;37.94;33.44;40.71;;
66747;Laerm;53658;50.742;10.864;2022-08-21T13:23:26;38.01;33.44;40.71;;
66747;Laerm;53658;50.742;10.864;2022-08-21T13:25:54;38.16;32.35;41.82;;
66747;Laerm;53658;50.742;10.864;2022-08-21T13:28:21;38.06;32.93;40.62;;
66747;Laerm;53658;50.742;10.864;2022-08-21T13:30:51;37.99;34.31;40.53;;
66747;Laerm;53658;50.742;10.864;2022-08-21T13:33:22;38.14;33.90;40.53;;
66747;Laerm;53658;50.742;10.864;2022-08-21T13:36:11;37.97;33.44;40.62;;
66747;Laerm;53658;50.742;10.864;2022-08-21T13:38:41;37.86;34.31;40.53;;
66747;Laerm;53658;50.742;10.864;2022-08-21T13:41:26;37.83;32.93;40.53;;
66747;Laerm;53658;50.742;10.864;2022-08-21T13:44:19;37.75;32.35;41.14;;
66747;Laerm;53658;50.742;10.864;2022-08-21T13:46:48;37.68;32.35;41.14;;
66747;Laerm;53658;50.742;10.864;2022-08-21T13:49:20;37.73;32.35;40.62;;
66747;Laerm;53658;50.742;10.864;2022-08-21T13:51:49;37.85;32.35;41.46;;
66747;Laerm;53658;50.742;10.864;2022-08-21T13:54:29;38.05;33.44;42.41;;
66747;Laerm;53658;50.742;10.864;2022-08-21T13:56:59;37.79;30.89;40.53;;
66747;Laerm;53658;50.742;10.864;2022-08-21T13:59:29;37.72;33.44;40.98;;
66747;Laerm;53658;50.742;10.864;2022-08-21T14:02:17;37.66;32.35;40.43;;
66747;Laerm;53658;50.742;10.864;2022-08-21T14:04:54;37.75;33.44;40.98;;
66747;Laerm;53658;50.742;10.864;2022-08-21T14:07:30;37.65;32.93;40.23;;
66747;Laerm;53658;50.742;10.864;2022-08-21T14:10:04;37.71;33.44;40.89;;
66747;Laerm;53658;50.742;10.864;2022-08-21T14:13:14;37.76;31.68;40.62;;
66747;Laerm;53658;50.742;10.864;2022-08-21T14:15:34;37.67;32.35;40.71;;
66747;Laerm;53658;50.742;10.864;2022-08-21T14:18:15;37.69;33.44;40.43;;
66747;Laerm;53658;50.742;10.864;2022-08-21T14:20:44;37.65;32.93;40.23;;
66747;Laerm;53658;50.742;10.864;2022-08-21T14:23:24;37.64;32.35;40.33;;
66747;Laerm;53658;50.742;10.864;2022-08-21T14:25:52;37.55;32.93;40.43;;
66747;Laerm;53658;50.742;10.864;2022-08-21T14:28:39;37.63;32.35;40.62;;
66747;Laerm;53658;50.742;10.864;2022-08-21T14:31:16;37.61;32.93;40.79;;
66747;Laerm;53658;50.742;10.864;2022-08-21T14:33:43;37.73;32.35;41.82;;
66747;Laerm;53658;50.742;10.864;2022-08-21T14:36:10;37.63;33.44;40.62;;
66747;Laerm;53658;50.742;10.864;2022-08-21T14:38:40;37.60;32.93;40.23;;
66747;Laerm;53658;50.742;10.864;2022-08-21T14:41:18;37.55;32.35;40.33;;
66747;Laerm;53658;50.742;10.864;2022-08-21T14:43:47;37.57;32.93;40.53;;
66747;Laerm;53658;50.742;10.864;2022-08-21T14:46:25;37.60;32.58;42.35;;
66747;Laerm;53658;50.742;10.864;2022-08-21T14:48:52;37.65;30.89;43.04;;
66747;Laerm;53658;50.742;10.864;2022-08-21T14:51:24;37.50;31.68;40.98;;
66747;Laerm;53658;50.742;10.864;2022-08-21T14:53:50;37.47;31.33;40.43;;
66747;Laerm;53658;50.742;10.864;2022-08-21T14:56:17;37.55;29.92;42.29;;
66747;Laerm;53658;50.742;10.864;2022-08-21T14:58:47;37.37;32.35;40.33;;